Time;durP1;ratioP1;P1;durP2;ratioP2;P2;SDS_P1;SDS_P2;PMS_P1;PMS_P2;Temp;Humidity;BMP_temperature;BMP_pressure;BME280_temperature;BME280_humidity;BME280_pressure;Samples;Min_cycle;Max_cycle;Signal;HPM_P1;HPM_P2
2021/10/03 00:02:03;;;;;;;3.33;1.70;;;;;;;18.33;76.82;99373.22;4981170;28;20112;-53
2021/10/03 00:04:31;;;;;;;6.40;1.58;;;;;;;18.44;76.37;99373.63;5002512;28;20140;-54
2021/10/03 00:06:58;;;;;;;5.25;1.80;;;;;;;18.46;76.45;99378.84;5014944;28;20042;-59
2021/10/03 00:09:24;;;;;;;3.80;1.80;;;;;;;18.40;76.72;99369.41;5000810;28;20049;-52
2021/10/03 00:11:51;;;;;;;2.42;1.75;;;;;;;18.52;75.99;99368.88;5017416;28;20108;-55
2021/10/03 00:14:18;;;;;;;3.08;1.80;;;;;;;18.53;75.91;99369.75;5019141;28;20538;-56
2021/10/03 00:16:45;;;;;;;2.75;1.75;;;;;;;18.48;76.11;99366.47;5021851;28;20049;-55
2021/10/03 00:19:11;;;;;;;2.30;1.77;;;;;;;18.54;76.15;99374.13;4990532;28;20718;-52
2021/10/03 00:21:36;;;;;;;3.95;2.03;;;;;;;18.54;76.01;99366.19;5004034;28;20124;-53
2021/10/03 00:24:02;;;;;;;3.45;1.70;;;;;;;18.59;76.00;99367.75;5008793;28;20054;-53
2021/10/03 00:26:27;;;;;;;3.45;2.00;;;;;;;18.45;76.62;99379.78;5005519;28;20183;-54
2021/10/03 00:28:53;;;;;;;2.40;1.70;;;;;;;18.48;76.50;99383.13;5006195;28;20037;-55
2021/10/03 00:31:18;;;;;;;5.32;1.98;;;;;;;18.50;76.42;99389.19;4998150;28;20060;-52
2021/10/03 00:33:43;;;;;;;3.15;1.80;;;;;;;18.63;75.79;99390.44;5005154;28;20132;-54
2021/10/03 00:36:09;;;;;;;2.50;1.90;;;;;;;18.59;75.88;99391.50;5009730;28;20272;-55
2021/10/03 00:38:34;;;;;;;2.08;1.80;;;;;;;18.68;75.74;99399.94;5004397;28;20033;-55
2021/10/03 00:41:00;;;;;;;3.42;1.70;;;;;;;18.59;76.04;99403.84;4997470;28;20476;-53
2021/10/03 00:43:25;;;;;;;3.85;2.00;;;;;;;18.56;76.21;99404.81;5004569;28;20057;-53
2021/10/03 00:45:51;;;;;;;3.75;2.10;;;;;;;18.53;76.42;99396.16;5004688;28;20049;-56
2021/10/03 00:48:17;;;;;;;4.47;1.90;;;;;;;18.53;76.08;99398.78;5003988;28;20048;-54
2021/10/03 00:50:44;;;;;;;2.75;1.70;;;;;;;18.55;75.92;99404.88;5002061;28;20908;-52
2021/10/03 00:53:11;;;;;;;4.47;1.98;;;;;;;18.39;76.54;99404.63;4997062;28;20046;-54
2021/10/03 00:55:36;;;;;;;4.40;1.90;;;;;;;18.37;76.45;99410.88;5004297;28;20060;-55
2021/10/03 00:58:02;;;;;;;4.47;1.65;;;;;;;18.31;76.41;99403.22;5006159;28;20053;-53
2021/10/03 01:00:30;;;;;;;4.57;1.58;;;;;;;18.33;75.82;99409.31;5004207;28;20417;-54
2021/10/03 01:02:56;;;;;;;7.47;1.50;;;;;;;18.34;75.84;99416.31;5018605;28;20045;-56
2021/10/03 01:05:22;;;;;;;3.80;1.30;;;;;;;18.36;75.38;99417.09;5002142;28;20458;-52
2021/10/03 01:07:48;;;;;;;6.78;1.33;;;;;;;18.29;75.51;99421.78;5006726;28;20037;-50
2021/10/03 01:10:19;;;;;;;4.53;1.33;;;;;;;18.31;75.33;99426.97;5002782;28;20045;-52
2021/10/03 01:12:45;;;;;;;10.45;1.45;;;;;;;18.28;75.38;99419.19;5003531;28;20591;-55
2021/10/03 01:15:11;;;;;;;4.22;1.50;;;;;;;18.19;75.94;99426.56;4999079;28;20433;-49
2021/10/03 01:17:37;;;;;;;5.25;1.40;;;;;;;18.25;75.79;99434.22;5003554;28;20168;-52
2021/10/03 01:20:04;;;;;;;4.00;1.38;;;;;;;18.21;76.13;99432.63;5003921;28;20056;-52
2021/10/03 01:22:30;;;;;;;4.32;1.60;;;;;;;18.13;76.63;99439.13;5005102;28;20033;-54
2021/10/03 01:24:58;;;;;;;5.75;1.60;;;;;;;18.14;76.37;99449.63;5014246;28;20648;-58
2021/10/03 01:27:24;;;;;;;4.60;1.23;;;;;;;18.13;76.05;99442.63;5003756;28;20037;-51
2021/10/03 01:29:50;;;;;;;5.20;1.42;;;;;;;17.84;76.60;99443.78;5005301;28;20041;-52
2021/10/03 01:32:16;;;;;;;8.07;1.40;;;;;;;18.10;75.41;99461.22;5003145;28;20108;-53
2021/10/03 01:34:42;;;;;;;9.77;1.65;;;;;;;18.10;74.76;99471.78;5001206;28;20124;-52
2021/10/03 01:37:08;;;;;;;9.18;1.48;;;;;;;18.05;74.81;99470.25;4996220;28;20189;-50
2021/10/03 01:39:33;;;;;;;7.30;1.60;;;;;;;17.83;75.49;99464.94;5005552;28;20049;-52
2021/10/03 01:41:58;;;;;;;8.82;1.60;;;;;;;17.69;75.92;99477.75;5002592;28;20053;-54
2021/10/03 01:44:24;;;;;;;6.78;1.27;;;;;;;17.65;75.84;99473.53;5005024;28;20114;-51
2021/10/03 01:46:49;;;;;;;6.13;1.30;;;;;;;17.56;75.58;99474.72;5001720;28;20595;-50
2021/10/03 01:49:14;;;;;;;8.50;1.33;;;;;;;17.47;75.43;99472.41;4999913;28;20037;-51
2021/10/03 01:51:40;;;;;;;9.07;1.50;;;;;;;17.35;75.28;99464.97;5002591;28;20034;-52
2021/10/03 01:54:05;;;;;;;5.53;1.10;;;;;;;17.28;75.49;99466.94;5003403;28;20052;-52
2021/10/03 01:56:32;;;;;;;8.70;1.30;;;;;;;17.21;75.75;99459.31;5004423;28;20045;-54
2021/10/03 01:59:00;;;;;;;6.80;1.33;;;;;;;17.08;76.27;99456.25;5000342;28;20045;-54
2021/10/03 02:01:29;;;;;;;6.90;1.20;;;;;;;17.03;75.68;99456.44;5004088;28;20409;-51
2021/10/03 02:03:54;;;;;;;10.38;1.20;;;;;;;16.91;76.21;99454.22;5000705;28;20528;-52
2021/10/03 02:06:20;;;;;;;7.18;1.15;;;;;;;16.91;76.46;99456.88;5004647;28;20130;-54
2021/10/03 02:08:57;;;;;;;9.05;1.35;;;;;;;16.90;76.38;99464.81;5009566;28;20037;-55
2021/10/03 02:11:23;;;;;;;8.65;1.60;;;;;;;16.83;76.63;99468.59;4999010;28;20048;-50
2021/10/03 02:13:49;;;;;;;11.13;1.42;;;;;;;16.78;76.79;99476.63;5008178;28;20037;-52
2021/10/03 02:16:15;;;;;;;15.02;1.55;;;;;;;16.74;76.67;99466.25;4999639;28;20203;-52
2021/10/03 02:18:40;;;;;;;10.35;1.63;;;;;;;16.75;76.94;99463.59;5007249;28;20037;-50
2021/10/03 02:21:07;;;;;;;9.57;1.52;;;;;;;16.69;77.12;99452.41;4995851;28;20041;-54
2021/10/03 02:23:34;;;;;;;10.05;1.30;;;;;;;16.70;77.06;99457.63;5003103;28;20045;-54
2021/10/03 02:25:59;;;;;;;10.73;1.58;;;;;;;16.65;77.66;99451.63;5007088;28;20091;-54
2021/10/03 02:28:26;;;;;;;12.65;1.75;;;;;;;16.67;77.16;99454.22;5001417;28;20137;-53
2021/10/03 02:30:56;;;;;;;11.82;1.60;;;;;;;16.71;77.07;99458.47;5003493;28;20675;-54
2021/10/03 02:33:22;;;;;;;9.82;1.35;;;;;;;16.67;77.24;99459.47;5003810;28;20131;-50
2021/10/03 02:35:48;;;;;;;10.93;1.60;;;;;;;16.69;77.23;99458.53;5003854;28;20040;-54
2021/10/03 02:38:18;;;;;;;10.07;1.60;;;;;;;16.67;76.97;99460.34;4999204;28;20053;-54
2021/10/03 02:40:44;;;;;;;8.57;1.50;;;;;;;16.66;77.23;99463.00;5004997;28;20127;-53
2021/10/03 02:43:10;;;;;;;14.10;1.70;;;;;;;16.65;77.36;99472.69;4998413;28;20047;-53
2021/10/03 02:45:39;;;;;;;10.00;1.70;;;;;;;16.60;77.64;99471.97;5003285;28;20045;-54
2021/10/03 02:48:04;;;;;;;8.45;1.80;;;;;;;16.64;77.69;99481.50;5005403;28;20383;-52
2021/10/03 02:50:30;;;;;;;11.68;1.60;;;;;;;16.63;77.91;99483.28;4999774;28;20056;-55
2021/10/03 02:52:56;;;;;;;10.73;1.80;;;;;;;16.67;77.77;99481.38;4996645;28;20038;-55
2021/10/03 02:55:21;;;;;;;11.50;2.15;;;;;;;16.70;77.77;99486.56;4996203;28;20132;-56
2021/10/03 02:57:47;;;;;;;9.13;1.90;;;;;;;16.71;77.65;99488.25;5000305;28;20060;-52
2021/10/03 03:00:13;;;;;;;13.10;2.10;;;;;;;16.54;78.28;99494.06;5008025;28;20051;-55
2021/10/03 03:02:38;;;;;;;11.40;2.05;;;;;;;16.69;77.95;99503.25;4999561;28;20147;-52
2021/10/03 03:05:08;;;;;;;13.70;1.77;;;;;;;16.69;77.57;99487.47;4995191;28;20041;-50
2021/10/03 03:07:38;;;;;;;12.48;1.70;;;;;;;16.65;77.92;99485.00;5004846;28;20424;-52
2021/10/03 03:10:08;;;;;;;11.50;1.83;;;;;;;16.70;77.66;99483.06;5004471;28;20521;-54
2021/10/03 03:12:35;;;;;;;13.73;1.88;;;;;;;16.63;77.58;99475.38;5005607;28;20464;-51
2021/10/03 03:15:02;;;;;;;8.43;1.70;;;;;;;16.67;77.76;99475.25;4997015;28;20057;-55
2021/10/03 03:17:27;;;;;;;12.43;1.80;;;;;;;16.71;77.46;99488.25;5001922;28;20102;-53
2021/10/03 03:19:52;;;;;;;9.30;1.52;;;;;;;16.63;77.68;99492.94;4999105;28;20160;-51
2021/10/03 03:22:18;;;;;;;8.65;1.42;;;;;;;16.57;77.12;99488.72;5002096;28;20041;-51
2021/10/03 03:24:43;;;;;;;6.75;1.38;;;;;;;16.62;76.83;99501.75;5003714;28;20072;-52
2021/10/03 03:27:09;;;;;;;8.82;1.50;;;;;;;16.57;76.68;99498.38;4997066;28;20069;-51
2021/10/03 03:29:35;;;;;;;7.65;1.42;;;;;;;16.51;75.92;99501.22;5002370;28;20054;-51
2021/10/03 03:32:01;;;;;;;8.13;1.33;;;;;;;16.53;75.83;99509.88;5002420;28;20041;-50
2021/10/03 03:34:27;;;;;;;9.32;1.40;;;;;;;16.37;75.91;99517.41;5017517;28;20045;-53
2021/10/03 03:36:53;;;;;;;5.63;1.15;;;;;;;16.33;74.99;99515.81;5001504;28;20824;-56
2021/10/03 03:39:18;;;;;;;5.05;1.02;;;;;;;16.22;74.62;99513.50;4994272;28;20045;-51
2021/10/03 03:41:44;;;;;;;5.57;0.90;;;;;;;16.15;73.93;99508.50;5000011;28;20065;-53
2021/10/03 03:44:09;;;;;;;7.07;1.10;;;;;;;16.09;74.03;99508.69;5004726;28;20603;-54
2021/10/03 03:46:35;;;;;;;5.20;0.93;;;;;;;16.06;74.10;99496.47;5003122;28;20045;-54
2021/10/03 03:49:00;;;;;;;5.50;1.00;;;;;;;16.01;73.94;99481.75;4993886;28;20139;-56
2021/10/03 03:51:26;;;;;;;6.55;0.90;;;;;;;15.86;74.02;99469.09;5000265;28;20469;-54
2021/10/03 03:53:51;;;;;;;7.32;1.10;;;;;;;15.85;74.64;99459.50;4999564;28;20065;-54
2021/10/03 03:56:17;;;;;;;4.63;1.15;;;;;;;15.78;75.16;99471.94;5000432;28;20120;-52
2021/10/03 03:58:42;;;;;;;7.45;1.10;;;;;;;15.76;75.17;99458.00;5001604;28;20148;-53
2021/10/03 04:01:08;;;;;;;5.22;1.00;;;;;;;15.72;75.49;99461.63;4993271;28;20042;-53
2021/10/03 04:03:33;;;;;;;8.60;1.20;;;;;;;15.67;75.49;99461.78;5003799;28;20318;-53
2021/10/03 04:05:58;;;;;;;6.35;1.27;;;;;;;15.63;75.53;99475.03;5000908;28;20146;-54
2021/10/03 04:08:24;;;;;;;9.60;1.40;;;;;;;15.58;76.55;99472.53;5002494;28;20410;-52
2021/10/03 04:10:52;;;;;;;10.02;0.90;;;;;;;15.56;76.87;99476.09;5004396;28;20045;-50
2021/10/03 04:13:18;;;;;;;5.40;0.98;;;;;;;15.54;76.83;99491.06;4981472;28;20041;-53
2021/10/03 04:15:44;;;;;;;6.90;0.88;;;;;;;15.52;77.07;99493.72;5001063;28;20482;-55
2021/10/03 04:18:09;;;;;;;6.07;1.10;;;;;;;15.48;77.12;99497.31;5000711;28;20340;-56
2021/10/03 04:20:35;;;;;;;7.35;1.02;;;;;;;15.43;76.99;99505.31;5002071;28;20137;-55
2021/10/03 04:23:00;;;;;;;7.47;1.27;;;;;;;15.48;77.03;99506.97;4991737;28;20153;-51
2021/10/03 04:25:26;;;;;;;8.80;1.20;;;;;;;15.40;77.08;99507.16;5003802;28;20053;-54
2021/10/03 04:27:51;;;;;;;11.48;1.10;;;;;;;15.32;77.19;99504.75;4997333;28;20084;-53
2021/10/03 04:30:16;;;;;;;7.03;1.10;;;;;;;15.39;77.29;99513.31;5003808;28;20041;-51
2021/10/03 04:32:42;;;;;;;10.05;1.10;;;;;;;15.37;77.58;99515.97;4999000;28;20033;-54
2021/10/03 04:35:08;;;;;;;9.77;1.10;;;;;;;15.36;77.03;99519.53;4992984;28;20037;-54
2021/10/03 04:37:33;;;;;;;6.15;1.10;;;;;;;15.37;77.53;99525.63;5001879;28;20045;-53
2021/10/03 04:39:58;;;;;;;7.95;1.10;;;;;;;15.41;77.01;99520.28;5012141;28;20516;-56
2021/10/03 04:42:24;;;;;;;8.25;1.13;;;;;;;15.38;77.02;99515.09;5000937;28;20156;-53
2021/10/03 04:44:50;;;;;;;6.15;1.15;;;;;;;15.33;76.97;99530.13;5004465;28;20498;-52
2021/10/03 04:47:15;;;;;;;7.68;1.10;;;;;;;15.36;77.34;99535.28;4989806;28;20036;-54
2021/10/03 04:49:40;;;;;;;7.93;1.08;;;;;;;15.35;76.96;99525.69;5004858;28;20081;-55
2021/10/03 04:52:06;;;;;;;4.80;1.00;;;;;;;15.39;76.62;99518.56;5001026;28;20132;-54
2021/10/03 04:54:31;;;;;;;4.80;1.00;;;;;;;15.40;76.82;99522.94;4999869;28;20052;-54
2021/10/03 04:56:57;;;;;;;8.25;1.27;;;;;;;15.33;77.03;99522.22;4997905;28;20064;-56
2021/10/03 04:59:22;;;;;;;10.85;1.05;;;;;;;15.32;77.22;99527.53;5004431;28;20112;-55
2021/10/03 05:01:47;;;;;;;9.70;1.15;;;;;;;15.32;77.41;99533.63;5007832;28;20042;-55
2021/10/03 05:04:13;;;;;;;7.38;1.00;;;;;;;15.34;77.69;99533.59;5003887;28;20532;-53
2021/10/03 05:06:39;;;;;;;8.65;1.25;;;;;;;15.35;77.31;99544.06;5007001;28;20371;-50
2021/10/03 05:09:04;;;;;;;12.13;1.40;;;;;;;15.36;77.24;99545.81;4994082;28;20438;-52
2021/10/03 05:11:30;;;;;;;8.77;1.33;;;;;;;15.33;76.92;99552.88;5005901;28;20045;-54
2021/10/03 05:13:56;;;;;;;9.60;1.02;;;;;;;15.27;77.22;99546.03;4988379;28;20041;-53
2021/10/03 05:16:21;;;;;;;9.57;1.20;;;;;;;15.28;77.02;99532.00;5006105;28;20041;-55
2021/10/03 05:18:46;;;;;;;9.30;1.48;;;;;;;15.25;77.00;99536.47;4999452;28;20374;-55
2021/10/03 05:21:12;;;;;;;9.82;0.95;;;;;;;15.26;77.23;99536.44;4998890;28;20315;-55
2021/10/03 05:23:37;;;;;;;7.00;1.15;;;;;;;15.25;77.29;99541.72;5001355;28;20091;-53
2021/10/03 05:26:03;;;;;;;9.95;1.10;;;;;;;15.21;77.58;99547.97;5004334;28;20045;-54
2021/10/03 05:28:28;;;;;;;6.53;1.08;;;;;;;15.19;77.64;99547.13;5005381;28;20053;-54
2021/10/03 05:30:53;;;;;;;7.22;1.10;;;;;;;15.20;77.62;99539.22;5000858;28;20052;-54
2021/10/03 05:33:19;;;;;;;7.50;1.00;;;;;;;15.16;77.85;99555.09;5002856;28;20136;-53
2021/10/03 05:35:44;;;;;;;6.13;1.23;;;;;;;15.18;78.03;99548.06;5003929;28;20738;-52
2021/10/03 05:38:10;;;;;;;7.47;0.90;;;;;;;15.18;77.85;99556.78;5003935;28;20053;-50
2021/10/03 05:40:35;;;;;;;8.68;1.45;;;;;;;15.21;77.65;99561.09;5005294;28;20046;-55
2021/10/03 05:43:00;;;;;;;10.82;1.30;;;;;;;15.17;77.79;99547.19;4997064;28;20044;-55
2021/10/03 05:45:26;;;;;;;9.50;1.80;;;;;;;15.18;77.86;99555.94;5005650;28;20076;-53
2021/10/03 05:47:52;;;;;;;8.32;1.25;;;;;;;15.18;77.78;99542.81;5007140;28;20044;-55
2021/10/03 05:50:17;;;;;;;8.02;1.40;;;;;;;15.21;77.84;99554.06;5001237;28;20388;-57
2021/10/03 05:52:43;;;;;;;8.90;1.77;;;;;;;15.21;77.88;99556.69;5005315;28;20065;-55
2021/10/03 05:55:09;;;;;;;13.43;1.70;;;;;;;15.23;77.78;99554.03;4994583;28;20120;-55
2021/10/03 05:57:34;;;;;;;12.93;1.88;;;;;;;15.21;77.88;99558.47;5004932;28;20082;-53
2021/10/03 05:59:59;;;;;;;6.88;1.75;;;;;;;15.23;77.96;99567.16;5002810;28;20175;-55
2021/10/03 06:02:25;;;;;;;6.80;1.90;;;;;;;15.21;78.12;99564.56;5003429;28;20038;-54
2021/10/03 06:04:50;;;;;;;11.02;2.30;;;;;;;15.20;78.37;99573.34;5005528;28;20073;-51
2021/10/03 06:07:16;;;;;;;8.10;2.30;;;;;;;15.21;78.37;99576.84;4997704;28;20041;-52
2021/10/03 06:09:42;;;;;;;9.60;2.60;;;;;;;15.25;78.16;99586.34;4998916;28;20410;-54
2021/10/03 06:12:08;;;;;;;14.95;2.83;;;;;;;15.17;78.20;99594.44;5000658;28;20187;-53
2021/10/03 06:14:33;;;;;;;11.85;3.60;;;;;;;15.21;78.30;99593.44;5000753;28;20465;-49
2021/10/03 06:16:58;;;;;;;14.07;3.70;;;;;;;15.24;78.83;99603.03;4998787;28;20140;-54
2021/10/03 06:19:24;;;;;;;15.05;4.20;;;;;;;15.25;78.74;99596.84;5002090;28;20046;-51
2021/10/03 06:21:49;;;;;;;14.05;4.47;;;;;;;15.27;78.49;99592.44;5008335;28;20661;-50
2021/10/03 06:24:18;;;;;;;15.60;5.10;;;;;;;15.23;78.54;99604.78;4999198;28;20140;-50
2021/10/03 06:26:47;;;;;;;12.85;4.50;;;;;;;15.30;78.47;99609.00;5005480;28;20184;-54
2021/10/03 06:29:13;;;;;;;15.18;4.65;;;;;;;15.29;78.46;99615.13;4997904;28;20579;-54
2021/10/03 06:31:38;;;;;;;17.83;4.82;;;;;;;15.27;78.62;99619.56;5003193;28;20045;-54
2021/10/03 06:34:03;;;;;;;14.35;4.30;;;;;;;15.28;78.19;99623.91;5001354;28;20045;-55
2021/10/03 06:36:30;;;;;;;10.07;4.40;;;;;;;15.33;78.60;99632.53;5019767;28;20929;-51
2021/10/03 06:38:55;;;;;;;14.35;4.35;;;;;;;15.33;78.40;99634.28;4998079;28;20831;-52
2021/10/03 06:41:21;;;;;;;17.92;4.03;;;;;;;15.36;78.48;99634.22;4998102;28;20045;-54
2021/10/03 06:43:46;;;;;;;9.15;3.20;;;;;;;15.35;78.13;99633.34;5005888;28;20113;-50
2021/10/03 06:46:11;;;;;;;14.48;3.58;;;;;;;15.41;78.30;99638.44;5003715;28;20044;-54
2021/10/03 06:48:37;;;;;;;11.48;3.45;;;;;;;15.40;78.29;99636.72;5004667;28;20543;-54
2021/10/03 06:51:03;;;;;;;11.20;3.58;;;;;;;15.41;78.07;99638.44;4997604;28;20539;-54
2021/10/03 06:53:28;;;;;;;8.65;3.30;;;;;;;15.39;78.22;99637.63;5001665;28;20064;-49
2021/10/03 06:55:53;;;;;;;9.55;3.47;;;;;;;15.41;78.22;99642.84;5000459;28;20405;-53
2021/10/03 06:58:19;;;;;;;7.88;3.45;;;;;;;15.44;78.01;99643.59;5003439;28;20071;-54
2021/10/03 07:00:45;;;;;;;12.23;3.42;;;;;;;15.39;78.20;99639.38;5005756;28;20045;-54
2021/10/03 07:03:10;;;;;;;9.52;3.40;;;;;;;15.44;78.10;99648.00;4997340;28;20227;-53
2021/10/03 07:05:35;;;;;;;10.40;3.53;;;;;;;15.44;77.93;99646.22;5003474;28;20038;-54
2021/10/03 07:08:01;;;;;;;9.45;3.45;;;;;;;15.44;78.03;99648.00;5002445;28;20578;-50
2021/10/03 07:10:27;;;;;;;8.75;3.40;;;;;;;15.47;77.95;99653.19;5003605;28;20215;-51
2021/10/03 07:12:53;;;;;;;15.77;3.45;;;;;;;15.51;77.74;99661.84;5002919;28;20426;-54
2021/10/03 07:15:18;;;;;;;11.05;3.30;;;;;;;15.54;77.84;99654.78;5000609;28;20053;-52
2021/10/03 07:17:44;;;;;;;8.43;3.30;;;;;;;15.53;77.61;99652.19;4997919;28;20049;-52
2021/10/03 07:20:10;;;;;;;9.73;3.10;;;;;;;15.59;77.43;99660.78;5007302;28;20047;-56
2021/10/03 07:22:35;;;;;;;8.63;3.20;;;;;;;15.55;77.63;99658.28;5016461;28;20045;-51
2021/10/03 07:25:00;;;;;;;8.30;3.33;;;;;;;15.59;77.38;99662.53;4986912;28;20290;-52
2021/10/03 07:27:26;;;;;;;8.50;3.13;;;;;;;15.58;77.46;99658.19;4999364;28;21613;-53
2021/10/03 07:29:51;;;;;;;9.60;3.33;;;;;;;15.63;77.13;99657.16;5001672;28;20492;-51
2021/10/03 07:32:17;;;;;;;8.45;2.97;;;;;;;15.65;77.50;99658.00;4997695;28;20124;-55
2021/10/03 07:34:42;;;;;;;8.38;2.85;;;;;;;15.70;77.26;99661.34;5002495;28;20041;-51
2021/10/03 07:37:08;;;;;;;10.13;3.00;;;;;;;15.70;77.16;99663.13;4998260;28;20077;-50
2021/10/03 07:39:37;;;;;;;8.20;2.70;;;;;;;15.72;76.90;99664.81;5004701;28;20064;-50
2021/10/03 07:42:03;;;;;;;12.10;2.75;;;;;;;15.69;77.11;99661.38;5005267;28;20049;-50
2021/10/03 07:44:29;;;;;;;7.35;2.58;;;;;;;15.67;76.82;99669.34;4981543;28;20571;-54
2021/10/03 07:46:54;;;;;;;6.43;2.75;;;;;;;15.69;77.21;99677.16;4996068;28;20404;-50
2021/10/03 07:49:20;;;;;;;7.15;3.10;;;;;;;15.68;77.51;99680.69;5002634;28;20334;-54
2021/10/03 07:51:45;;;;;;;9.02;2.58;;;;;;;15.68;77.13;99675.41;4999739;28;20663;-52
2021/10/03 07:54:10;;;;;;;9.25;2.75;;;;;;;15.66;76.97;99683.38;5001463;28;20473;-51
2021/10/03 07:56:36;;;;;;;11.93;3.17;;;;;;;15.63;76.90;99693.94;5001078;28;20662;-52
2021/10/03 07:59:01;;;;;;;9.57;2.88;;;;;;;15.60;77.00;99696.66;4999753;28;20551;-49
2021/10/03 08:01:27;;;;;;;12.30;3.17;;;;;;;15.60;77.05;99704.53;5001360;28;20071;-55
2021/10/03 08:03:53;;;;;;;10.25;3.50;;;;;;;15.66;76.76;99707.00;5003903;28;20049;-52
2021/10/03 08:06:21;;;;;;;6.53;3.20;;;;;;;15.67;77.13;99703.50;5003581;28;20053;-55
2021/10/03 08:08:47;;;;;;;6.93;3.15;;;;;;;15.68;77.08;99697.31;5001825;28;20230;-52
2021/10/03 08:11:12;;;;;;;8.25;3.22;;;;;;;15.75;77.12;99700.63;4994432;28;20502;-52
2021/10/03 08:13:39;;;;;;;7.40;2.92;;;;;;;15.74;76.48;99691.03;5000394;28;20060;-52
2021/10/03 08:16:05;;;;;;;9.88;3.10;;;;;;;15.68;75.78;99693.81;5000090;28;20055;-55
2021/10/03 08:18:30;;;;;;;8.75;3.78;;;;;;;15.70;75.86;99685.00;4995834;28;20049;-55
2021/10/03 08:20:56;;;;;;;8.90;3.75;;;;;;;15.76;76.76;99691.84;4998601;28;20048;-53
2021/10/03 08:23:21;;;;;;;5.88;3.45;;;;;;;15.82;76.37;99708.31;4998657;28;20508;-53
2021/10/03 08:25:46;;;;;;;7.53;3.40;;;;;;;15.79;76.33;99707.56;5003378;28;20065;-53
2021/10/03 08:28:12;;;;;;;7.68;3.25;;;;;;;15.81;76.04;99709.22;4999384;28;20037;-54
2021/10/03 08:30:38;;;;;;;6.38;2.70;;;;;;;15.80;75.79;99711.88;4995747;28;20037;-52
2021/10/03 08:33:03;;;;;;;4.60;2.17;;;;;;;15.82;75.80;99705.69;4994625;28;20140;-53
2021/10/03 08:35:29;;;;;;;6.40;1.95;;;;;;;15.73;75.43;99705.09;4999936;28;20585;-54
2021/10/03 08:37:54;;;;;;;4.40;1.80;;;;;;;15.71;75.36;99706.88;5006608;28;20054;-52
2021/10/03 08:40:20;;;;;;;6.20;1.60;;;;;;;15.72;74.95;99711.25;5006276;28;20045;-55
2021/10/03 08:42:45;;;;;;;4.97;1.63;;;;;;;15.64;75.90;99723.69;5004047;28;20076;-54
2021/10/03 08:45:11;;;;;;;6.47;1.40;;;;;;;15.65;75.46;99725.44;4999310;28;20327;-55
2021/10/03 08:47:40;;;;;;;3.78;1.45;;;;;;;15.67;75.70;99719.25;5007396;28;20132;-53
2021/10/03 08:50:09;;;;;;;3.28;1.50;;;;;;;15.69;75.53;99716.56;5005735;28;20042;-53
2021/10/03 08:52:36;;;;;;;3.15;1.30;;;;;;;15.69;75.15;99713.94;4998582;28;22738;-53
2021/10/03 08:55:02;;;;;;;2.85;1.40;;;;;;;15.68;75.24;99718.31;4998312;28;20427;-54
2021/10/03 08:57:27;;;;;;;5.07;1.60;;;;;;;15.65;75.35;99721.03;5001009;28;20037;-54
2021/10/03 09:00:16;;;;;;;3.75;1.52;;;;;;;15.73;76.01;99719.09;5002229;28;20760;-56
2021/10/03 09:02:53;;;;;;;3.83;1.50;;;;;;;15.88;75.32;99724.84;5002942;28;20052;-55
2021/10/03 09:05:19;;;;;;;2.67;1.40;;;;;;;15.90;75.25;99731.78;4998910;28;20049;-56
2021/10/03 09:07:58;;;;;;;4.85;1.60;;;;;;;15.86;75.42;99745.06;5006586;28;20033;-56
2021/10/03 09:10:24;;;;;;;3.88;1.45;;;;;;;15.82;75.50;99741.63;5000493;28;20045;-53
2021/10/03 09:12:50;;;;;;;3.25;1.60;;;;;;;15.84;75.22;99737.22;5003814;28;20285;-50
2021/10/03 09:15:16;;;;;;;3.40;1.30;;;;;;;15.99;74.52;99730.66;5002379;28;20061;-55
2021/10/03 09:17:48;;;;;;;2.83;1.30;;;;;;;16.20;73.75;99736.22;5018523;28;20478;-53
2021/10/03 09:20:21;;;;;;;6.43;1.40;;;;;;;16.27;73.87;99738.69;5000687;28;20139;-55
2021/10/03 09:23:07;;;;;;;4.40;1.35;;;;;;;16.27;73.82;99721.13;5001512;28;20164;-53
2021/10/03 09:25:36;;;;;;;3.67;1.40;;;;;;;16.30;73.35;99730.69;5007238;28;20401;-56
2021/10/03 09:28:03;;;;;;;3.85;1.30;;;;;;;16.22;73.85;99736.19;4996027;28;20084;-51
2021/10/03 09:30:29;;;;;;;5.25;1.40;;;;;;;16.25;73.83;99728.19;5006260;28;20468;-52
2021/10/03 09:32:56;;;;;;;3.10;1.20;;;;;;;16.24;73.60;99724.69;4996634;28;20041;-54
2021/10/03 09:35:30;;;;;;;3.55;1.17;;;;;;;16.26;72.67;99726.44;5004692;28;20434;-52
2021/10/03 09:37:56;;;;;;;5.50;1.48;;;;;;;16.34;72.87;99730.59;5007923;28;20029;-51
2021/10/03 09:40:23;;;;;;;3.38;1.48;;;;;;;16.40;73.34;99748.81;5000859;28;20049;-53
2021/10/03 09:43:03;;;;;;;4.25;1.10;;;;;;;16.34;72.58;99741.09;5004392;28;20487;-53
2021/10/03 09:45:29;;;;;;;2.33;1.15;;;;;;;16.34;73.52;99756.03;5000468;28;20100;-54
2021/10/03 09:48:02;;;;;;;5.05;1.38;;;;;;;16.41;73.89;99750.53;5002371;28;20072;-55
2021/10/03 09:50:28;;;;;;;4.95;1.48;;;;;;;16.45;73.47;99746.06;5013723;28;20033;-54
2021/10/03 09:52:57;;;;;;;4.53;1.40;;;;;;;16.55;72.04;99744.88;5002765;28;20041;-53
2021/10/03 09:55:25;;;;;;;6.63;1.50;;;;;;;16.57;73.49;99761.50;5018328;28;20072;-56
2021/10/03 10:00:28;;;;;;;2.55;0.95;;;;;;;16.48;72.27;99765.22;5084118;23;20136;-69
2021/10/03 10:02:55;;;;;;;3.50;1.10;;;;;;;16.42;72.32;99764.53;4887018;28;20082;-70
2021/10/03 10:05:24;;;;;;;2.95;1.08;;;;;;;16.41;72.99;99763.66;4900857;28;20046;-70
2021/10/03 10:07:50;;;;;;;4.65;1.20;;;;;;;16.42;73.36;99757.50;4917017;28;20491;-69
2021/10/03 10:13:03;;;;;;;2.80;1.00;;;;;;;16.42;72.22;99767.16;4926940;28;20046;-70
2021/10/03 10:15:29;;;;;;;3.35;0.93;;;;;;;16.36;72.35;99775.22;5052543;23;20384;-69
2021/10/03 10:17:54;;;;;;;1.85;1.00;;;;;;;16.34;72.67;99770.03;4878342;28;20055;-68
2021/10/03 10:20:24;;;;;;;5.97;1.02;;;;;;;16.35;72.54;99771.72;4925383;28;20058;-69
2021/10/03 10:22:57;;;;;;;3.67;0.98;;;;;;;16.46;72.29;99781.97;4920975;28;20081;-70
2021/10/03 10:42:01;;;;;;;6.03;1.10;;;;;;;16.86;72.39;99806.28;5058641;23;20469;-63
2021/10/03 10:44:36;;;;;;;3.95;1.30;;;;;;;16.82;71.91;99809.91;4871609;29;20544;-63
2021/10/03 10:47:19;;;;;;;2.72;1.10;;;;;;;16.85;71.50;99819.47;4849224;29;20538;-63
2021/10/03 10:49:45;;;;;;;3.20;1.08;;;;;;;16.93;71.36;99835.91;4858568;29;20034;-63
2021/10/03 10:53:01;;;;;;;4.22;1.33;;;;;;;16.88;72.66;99867.66;5117932;23;20056;-73
2021/10/03 10:56:18;;;;;;;4.05;1.30;;;;;;;16.77;72.63;99876.75;4861748;29;20630;-76
2021/10/03 10:59:33;;;;;;;4.10;1.60;;;;;;;16.74;72.12;99864.53;4880026;29;20815;-75
2021/10/03 11:02:49;;;;;;;7.10;1.30;;;;;;;16.70;71.97;99868.16;4865175;29;20062;-76
2021/10/03 11:06:04;;;;;;;5.47;1.35;;;;;;;16.63;71.95;99885.03;4877957;29;20056;-74
2021/10/03 11:08:30;;;;;;;3.60;1.17;;;;;;;16.63;72.02;99883.25;4859756;29;20048;-69
2021/10/03 11:11:01;;;;;;;4.57;1.15;;;;;;;16.49;72.10;99882.72;4879574;29;20067;-62
2021/10/03 11:13:45;;;;;;;3.45;1.33;;;;;;;16.52;72.34;99887.91;4873078;29;20050;-62
2021/10/03 11:16:23;;;;;;;5.20;1.35;;;;;;;16.66;71.73;99884.94;4887885;29;20869;-61
2021/10/03 11:19:04;;;;;;;3.45;1.30;;;;;;;16.56;71.94;99886.91;4884337;29;20142;-62
2021/10/03 11:21:34;;;;;;;2.88;1.15;;;;;;;16.62;72.29;99901.72;4878967;29;20052;-61
2021/10/03 11:24:03;;;;;;;3.65;1.30;;;;;;;16.59;71.55;99896.47;4881550;29;21760;-62
2021/10/03 11:26:46;;;;;;;4.68;1.33;;;;;;;16.52;72.00;99905.47;4876167;29;20501;-62
2021/10/03 11:29:12;;;;;;;4.88;1.30;;;;;;;16.44;71.94;99887.25;4876197;29;20486;-61
2021/10/03 11:31:41;;;;;;;3.53;1.40;;;;;;;16.39;72.55;99904.06;4887138;29;20607;-62
2021/10/03 11:34:07;;;;;;;4.32;1.35;;;;;;;16.41;72.91;99907.50;4875785;29;20048;-62
2021/10/03 11:36:32;;;;;;;3.00;1.10;;;;;;;16.41;72.27;99908.34;4883699;29;20126;-62
2021/10/03 11:39:00;;;;;;;2.90;1.02;;;;;;;16.36;72.12;99914.63;4858043;29;20055;-62
2021/10/03 11:44:00;;;;;;;2.90;0.82;;;;;;;16.32;71.90;99923.53;4647913;23;20056;-70
2021/10/03 11:46:26;;;;;;;2.45;0.90;;;;;;;16.30;70.94;99935.84;4964538;23;20558;-56
2021/10/03 11:48:53;;;;;;;4.45;0.95;;;;;;;16.21;72.57;99945.69;4930164;28;20510;-57
2021/10/03 11:53:53;;;;;;;3.38;0.82;;;;;;;16.27;73.29;99962.22;4860439;29;20055;-67
2021/10/03 11:56:19;;;;;;;3.00;0.90;;;;;;;16.32;72.51;99955.09;4894095;29;20054;-69
2021/10/03 11:58:45;;;;;;;2.17;0.85;;;;;;;16.32;72.71;99966.47;4879042;29;20063;-69
2021/10/03 12:01:11;;;;;;;4.65;1.10;;;;;;;16.34;72.13;99982.22;4890765;29;20172;-69